Weather observations for the past three days for
Albuquerque, Double Eagle II Airport
| Date | Time (mdt) | Wind (kph) | Vis. (km) | Weather | Sky Cond. | Temperature (ºC) | Relative Humidity | Wind Chill (°C) | Heat Index (°C) | Pressure | Precipitation (cm) | ||||||
|---|---|---|---|---|---|---|---|---|---|---|---|---|---|---|---|---|---|
| Air | Dwpt | 6 hour | altimeter (cm) | sea level (mb) | 1 hr | 3 hr | 6 hr | ||||||||||
| Max. | Min. | ||||||||||||||||
| 07 | 02:10 | NW 17 | 16.09 | Fair | CLR | 5.8 | -9.2 | 33% | 3 | 76.63 | 0.0 | ||||||
| 07 | 01:50 | NW 17 | 16.09 | Fair | CLR | 5.3 | -9.1 | 35% | 2 | 76.63 | 0.0 | ||||||
| 07 | 01:30 | W 17 | 16.09 | Fair | CLR | 5 | -9.1 | 36% | 2 | 76.63 | 0.0 | ||||||
| 07 | 01:10 | NW 13 | 16.09 | Fair | CLR | 5.6 | -9 | 34% | 3 | 76.63 | 0.0 | ||||||
| 07 | 00:50 | NW 15 | 16.09 | Fair | CLR | 6.3 | -9 | 33% | 4 | 76.63 | 0.0 | ||||||
| 07 | 00:30 | NW 17 | 16.09 | Fair | CLR | 6.4 | -8.7 | 33% | 4 | 76.63 | 0.0 | ||||||
| 07 | 00:10 | NW 7 | 16.09 | Fair | CLR | 4.7 | -8.3 | 39% | 3 | 76.63 | 0.0 | ||||||
| 06 | 23:50 | NW 15 | 16.09 | Fair | CLR | 7.7 | -8.6 | 15 | 7.7 | 31% | 5 | 76.61 | 0.0 | ||||
| 06 | 23:30 | NW 19 | 16.09 | Fair | CLR | 9 | -9 | 27% | 7 | 76.61 | 0.0 | ||||||
| 06 | 23:10 | NW 15 | 16.09 | Fair | CLR | 9.4 | -8.6 | 27% | 7 | 76.61 | 0.0 | ||||||
| 06 | 22:50 | NW 17 | 16.09 | Fair | CLR | 9.7 | -7.5 | 29% | 8 | 76.58 | 0.0 | ||||||
| 06 | 22:30 | NW 17 | 16.09 | Fair | CLR | 9.5 | -5.1 | 36% | 7 | 76.58 | 0.0 | ||||||
| 06 | 22:10 | NW 13 | 16.09 | Fair | CLR | 9 | -2.9 | 43% | 7 | 76.58 | 0.0 | ||||||
| 06 | 21:50 | NW 11 | 16.09 | Fair | CLR | 9.6 | -1.9 | 45% | 8 | 76.53 | 0.0 | ||||||
| 06 | 21:30 | NW 11 | 16.09 | Fair | CLR | 10.8 | -1.8 | 42% | 76.5 | 0.0 | |||||||
| 06 | 21:10 | NW 13 | 16.09 | Fair | CLR | 10.5 | -1.6 | 43% | 76.48 | 0.0 | |||||||
| 06 | 20:50 | W 9 | 16.09 | Partly Cloudy | SCT090 | 10 | -2 | 43% | 9 | 76.43 | 0.0 | ||||||
| 06 | 19:50 | NW 19 | 16.09 | Fair | CLR | 13 | -1 | 38% | 76.38 | 0.0 | |||||||
| 06 | 18:50 | NW 28 G 37 | 16.09 | Partly Cloudy | SCT070 SCT110 | 14 | 0 | 39% | 76.33 | 0.0 | |||||||
| 06 | 17:50 | NW 30 G 59 | 16.09 | Light Rain | SCT022 BKN070 BKN090 | 15 | 0 | 36% | 76.28 | 0.0 | |||||||
| 06 | 16:50 | NW 35 G 44 | 16.09 | Overcast and Breezy | SCT090 OVC110 | 17 | -2 | 27% | 76.15 | 0.0 | |||||||
| 06 | 15:50 | SW 17 G 39 | 16.09 | Light Rain | SCT027 BKN090 OVC110 | 18 | -1 | 28% | 76.12 | 0.0 | |||||||
| 06 | 14:50 | SW 28 G 39 | 16.09 | Mostly Cloudy | BKN110 | 20 | -3 | 21% | 76.15 | 0.0 | |||||||
| 06 | 13:47 | W 26 G 37 | 16.09 | Mostly Cloudy | BKN100 | 18 | -3 | 24% | 76.15 | 0.0 | |||||||
| 06 | 12:50 | SW 9 G 43 | 16.09 | Partly Cloudy | SCT060 SCT080 | 16 | -2 | 29% | 76.2 | 0.0 | |||||||
| 06 | 11:47 | W 17 | 16.09 | Partly Cloudy | SCT060 SCT070 | 15 | -1 | 34% | 76.25 | 0.0 | |||||||
| 06 | 10:47 | W 13 | 16.09 | Fair | CLR | 13 | -1 | 38% | 76.28 | 0.0 | |||||||
| 06 | 09:47 | SW 22 | 16.09 | Fair | CLR | 11 | -1 | 44% | 76.25 | 0.0 | |||||||
| 06 | 08:47 | SW 22 | 16.09 | Fair | CLR | 9 | -1 | 50% | 6 | 76.28 | 0.0 | ||||||
| 06 | 07:47 | SW 20 | 16.09 | A Few Clouds | FEW070 | 8 | 0 | 57% | 5 | 76.28 | 0.0 | ||||||
| 06 | 06:47 | S 15 | 16.09 | Mostly Cloudy | BKN050 | 5 | 0 | 70% | 2 | 76.25 | 0.0 | ||||||
| 06 | 05:30 | SW 13 | 16.09 | Fair | CLR | 3 | -0.6 | 77% | 0 | 76.17 | 0.0 | ||||||
| 06 | 05:10 | SW 15 | 16.09 | Fair | CLR | 3 | -0.2 | 80% | -0 | 76.17 | 0.0 | ||||||
| 06 | 04:50 | SW 11 | 16.09 | Fair | CLR | 3.1 | -0.1 | 80% | 0 | 76.17 | 0.0 | ||||||
| 06 | 04:30 | SW 13 | 16.09 | Fair | CLR | 4 | 0 | 75% | 1 | 76.17 | 0.0 | ||||||
| 06 | 04:10 | SW 15 | 16.09 | Fair | CLR | 3.9 | 0 | 76% | 1 | 76.15 | 0.0 | ||||||
| 06 | 03:50 | SW 15 | 16.09 | Fair | CLR | 3.6 | 0.1 | 78% | 0 | 76.15 | 0.0 | ||||||
| 06 | 03:30 | SW 11 | 16.09 | Fair | CLR | 3.6 | 0.2 | 79% | 1 | 76.15 | 0.0 | ||||||
| 06 | 03:10 | SW 15 | 16.09 | Fair | CLR | 2.7 | 0.2 | 84% | -1 | 76.12 | 0.0 | ||||||
| 06 | 02:50 | W 9 | 16.09 | Fair | CLR | 3.8 | 0.2 | 78% | 2 | 76.12 | 0.0 | ||||||
| 06 | 02:30 | Calm | 16.09 | Fair | CLR | 4.8 | 0.8 | 76% | 76.15 | 0.0 | |||||||
| 06 | 02:10 | SW 13 | 16.09 | Fair | CLR | 3.7 | 0.7 | 81% | 1 | 76.15 | 0.0 | ||||||
| 06 | 01:50 | SW 6 | 16.09 | Fair | CLR | 5.1 | 1.1 | 76% | 76.15 | 0.0 | |||||||
| 06 | 01:30 | SE 7 | 16.09 | Fair | CLR | 5 | 1.2 | 77% | 4 | 76.15 | 0.0 | ||||||
| 06 | 01:10 | Calm | 16.09 | Fair | CLR | 4.3 | 1.2 | 81% | 76.17 | 0.0 | |||||||
| 06 | 00:50 | Calm | 16.09 | Fair | CLR | 5.6 | 1.8 | 77% | 76.17 | 0.0 | |||||||
| 06 | 00:30 | SW 11 | 16.09 | Fair | CLR | 5.6 | 1.8 | 77% | 3 | 76.17 | 0.0 | ||||||
| 06 | 00:10 | W 11 | 16.09 | Fair | CLR | 6.6 | 1.9 | 72% | 5 | 76.15 | 0.0 | ||||||
| 05 | 23:50 | W 11 | 16.09 | Partly Cloudy | SCT090 | 6.8 | 2.1 | 14.3 | 6.8 | 72% | 5 | 76.15 | 0.0 | ||||
| 05 | 23:30 | W 9 | 16.09 | Mostly Cloudy | SCT055 BKN090 | 7.5 | 2.6 | 71% | 6 | 76.12 | 0.0 | ||||||
| 05 | 23:10 | Calm | 16.09 | Overcast | BKN055 OVC090 | 7.3 | 2.7 | 73% | 76.15 | 0.0 | |||||||
| 05 | 22:50 | Calm | 16.09 | Mostly Cloudy | BKN090 BKN110 | 7.1 | 2.2 | 71% | 76.15 | 0.0 | |||||||
| 05 | 22:30 | Calm | 16.09 | Partly Cloudy | SCT110 | 8.5 | 2.5 | 66% | 76.12 | 0.0 | |||||||
| 05 | 22:10 | NW 9 | 16.09 | Fair | CLR | 9 | 2.5 | 64% | 8 | 76.1 | 0.0 | ||||||
| 05 | 21:50 | NW 20 | 16.09 | Fair | CLR | 9.2 | 3 | 65% | 7 | 76.1 | 0.0 | ||||||
| 05 | 21:30 | NW 20 | 16.09 | Partly Cloudy | SCT060 SCT070 SCT085 | 9.6 | 2.8 | 63% | 7 | 76.07 | 0.0 | ||||||
| 05 | 21:10 | NW 17 | 16.09 | Mostly Cloudy | BKN060 BKN075 BKN095 | 9.4 | 3.4 | 66% | 7 | 76.07 | 0.0 | ||||||
| 05 | 19:45 | W 13 | 16.09 | Mostly Cloudy | SCT085 BKN100 | 12 | 4 | 58% | 75.9 | 0.0 | |||||||
| 05 | 16:45 | NW 19 | 16.09 | Fair | CLR | 15 | 4 | 48% | 75.87 | 0.0 | |||||||
| 05 | 12:47 | W 13 | 16.09 | Showers in Vicinity | OVC036 | 12 | 3 | 54% | 76.05 | 0.0 | |||||||
| 05 | 12:18 | W 9 | 16.09 | Overcast | BKN060 OVC080 | 12 | 3 | 54% | 76.05 | 0.0 | |||||||
| 05 | 09:47 | NW 31 | 16.09 | Overcast | SCT060 OVC070 | 10 | 4 | 67% | 7 | 76.05 | 0.0 | ||||||
| 05 | 08:50 | NW 17 | 16.09 | Overcast | BKN046 OVC050 | 10 | 4 | 67% | 8 | 76.1 | 0.0 | ||||||
| 05 | 07:47 | W 15 | 16.09 | Overcast | SCT060 OVC070 | 12 | -1 | 41% | 76.1 | 0.0 | |||||||
| 05 | 06:47 | W 11 | 16.09 | Mostly Cloudy | BKN090 | 12 | -1 | 41% | 76.02 | 0.0 | |||||||
| 05 | 05:47 | W 11 | 16.09 | Mostly Cloudy | BKN110 | 12 | -1 | 41% | 76.02 | 0.0 | |||||||
| 05 | 05:35 | W 11 | 16.09 | Mostly Cloudy | BKN120 | 12.3 | -1 | 40% | 76.02 | 0.0 | |||||||
| 05 | 05:15 | W 15 | 16.09 | Mostly Cloudy | BKN120 | 12.8 | -1 | 39% | 76 | 0.0 | |||||||
| 05 | 04:55 | SW 15 | 16.09 | Partly Cloudy | SCT120 | 12.7 | -1.4 | 38% | 76.02 | 0.0 | |||||||
| 05 | 04:35 | W 15 | 16.09 | Fair | CLR | 12.6 | -2.1 | 36% | 76.02 | 0.0 | |||||||
| 05 | 03:55 | SW 13 | 16.09 | Fair | CLR | 12.6 | -2.5 | 35% | 76.02 | 0.0 | |||||||
| 05 | 03:35 | SW 9 | 16.09 | Fair | CLR | 12.4 | -2.2 | 36% | 76.02 | 0.0 | |||||||
| 05 | 03:15 | SW 9 | 16.09 | Partly Cloudy | SCT100 | 12.9 | -2.5 | 34% | 76.02 | 0.0 | |||||||
| 05 | 02:55 | SW 9 | 16.09 | Mostly Cloudy | BKN100 | 13 | -2.4 | 35% | 76.02 | 0.0 | |||||||
| 05 | 02:35 | SW 6 | 16.09 | Partly Cloudy | SCT100 | 12.7 | -2.2 | 36% | 76.05 | 0.0 | |||||||
| 05 | 02:15 | W 9 | 16.09 | Fair | CLR | 14 | -2.6 | 32% | 76.07 | 0.0 | |||||||
| 05 | 01:55 | W 11 | 16.09 | Fair | CLR | 14 | -2.5 | 32% | 76.1 | 0.0 | |||||||
| 05 | 01:35 | W 19 | 16.09 | Fair | CLR | 14.5 | -2.6 | 31% | 76.1 | 0.0 | |||||||
| 05 | 01:15 | W 26 G 33 | 16.09 | Fair | CLR | 14.9 | -2.7 | 30% | 76.05 | 0.0 | |||||||
| 05 | 00:55 | SW 26 | 16.09 | Fair | CLR | 15.2 | -2.8 | 29% | 76.05 | 0.0 | |||||||
| 05 | 00:35 | W 22 | 16.09 | Fair | CLR | 15.5 | -3.2 | 28% | 76.05 | 0.0 | |||||||
| 05 | 00:15 | W 26 | 16.09 | Fair | CLR | 16.1 | -3.5 | 26% | 76.05 | 0.0 | |||||||
| 04 | 23:55 | W 20 | 11.27 | Fair | CLR | 16.2 | -4 | 21.7 | 16.2 | 25% | 76.05 | 0.0 | |||||
| 04 | 23:35 | W 22 | 16.09 | Fair | CLR | 16.5 | -4.5 | 24% | 76.05 | 0.0 | |||||||
| 04 | 23:15 | W 31 | 16.09 | Fair | CLR | 16.9 | -4.8 | 22% | 76.02 | 0.0 | |||||||
| 04 | 22:55 | W 20 | 16.09 | Partly Cloudy | SCT120 | 17 | -5 | 22% | 76.02 | 0.0 | |||||||
| 04 | 22:35 | W 28 G 33 | 16.09 | Fair | CLR | 17.5 | -5.1 | 21% | 76 | 0.0 | |||||||
| 04 | 22:15 | W 24 | 16.09 | Fair | CLR | 17.7 | -5.3 | 20% | 76 | 0.0 | |||||||
| 04 | 21:55 | W 20 | 16.09 | Fair | CLR | 18 | -5.4 | 20% | 76 | 0.0 | |||||||
| 04 | 21:35 | W 15 | 16.09 | Fair | CLR | 17.8 | -4.6 | 21% | 76 | 0.0 | |||||||
| 04 | 21:15 | W 19 | 16.09 | Fair | CLR | 18.4 | -4.8 | 20% | 75.95 | 0.0 | |||||||
| 04 | 20:47 | W 26 | 16.09 | Fair | CLR | 19 | -5 | 19% | 75.95 | 0.0 | |||||||
| 04 | 19:47 | W 31 G 44 | 16.09 | Fair | CLR | 20 | -6 | 17% | 75.92 | 0.0 | |||||||
| 04 | 18:47 | W 24 | 16.09 | Partly Cloudy | SCT090 | 21 | -6 | 16% | 75.87 | 0.0 | |||||||
| 04 | 17:47 | W 33 G 41 | 16.09 | Partly Cloudy and Breezy | SCT090 | 22 | -8 | 13% | 75.9 | 0.0 | |||||||
| 04 | 16:47 | W 37 G 44 | 16.09 | Fair and Breezy | CLR | 22 | -12 | 9% | 75.92 | 0.0 | |||||||
| 04 | 14:50 | SW 28 G 44 | 16.09 | Fair | CLR | 24 | -11 | 9% | 24 | 76.05 | 0.0 | ||||||
| 04 | 13:50 | SW 24 G 41 | 16.09 | Fair | CLR | 22 | -7 | 14% | 76.12 | 0.0 | |||||||
| 04 | 12:50 | SW 26 G 35 | 16.09 | Fair | CLR | 21 | -6 | 16% | 76.2 | 0.0 | |||||||
| 04 | 11:50 | SW 26 G 37 | 16.09 | Fair | CLR | 19 | -4 | 21% | 76.25 | 0.0 | |||||||
| 04 | 10:50 | SW 20 G 31 | 16.09 | Fair | CLR | 18 | -6 | 19% | 76.28 | 0.0 | |||||||
| 04 | 09:50 | W 11 | 16.09 | Fair | CLR | 17 | -3 | 25% | 76.28 | 0.0 | |||||||
| 04 | 08:50 | W 17 | 16.09 | Fair | CLR | 16 | -1 | 31% | 76.3 | 0.0 | |||||||
| 04 | 07:50 | W 13 | 16.09 | Partly Cloudy | SCT120 | 15 | 1 | 39% | 76.28 | 0.0 | |||||||
| 04 | 06:50 | SW 13 | 16.09 | Partly Cloudy | SCT120 | 12 | 2 | 51% | 76.25 | 0.0 | |||||||
| 04 | 05:55 | Vrbl 6 | 16.09 | Partly Cloudy | SCT090 | 11 | 4 | 62% | 76.2 | 0.0 | |||||||
| 04 | 05:35 | N 6 | 16.09 | Overcast | OVC090 | 10.8 | 4.4 | 65% | 76.2 | 0.0 | |||||||
| 04 | 05:15 | Calm | 16.09 | Mostly Cloudy | BKN090 | 11.8 | 3.7 | 58% | 76.17 | 0.0 | |||||||
| 04 | 04:55 | SW 13 | 16.09 | Fair | CLR | 12.1 | 3.5 | 56% | 76.12 | 0.0 | |||||||
| 04 | 04:35 | SW 7 | 16.09 | Fair | CLR | 10.6 | 4.2 | 65% | 76.15 | 0.0 | |||||||
| 04 | 04:15 | S 7 | 16.09 | Partly Cloudy | SCT095 | 11.1 | 4.7 | 65% | 76.15 | 0.0 | |||||||
| 04 | 03:55 | S 9 | 16.09 | Partly Cloudy | SCT095 | 11 | 4.8 | 66% | 76.15 | 0.0 | |||||||
| 04 | 03:35 | S 13 | 16.09 | Fair | CLR | 10.3 | 4.8 | 69% | 76.15 | 0.0 | |||||||
| 04 | 03:15 | S 9 | 16.09 | Fair | CLR | 10.5 | 4.5 | 67% | 76.15 | 0.0 | |||||||
| 04 | 02:55 | S 11 | 16.09 | Fair | CLR | 11.1 | 4.7 | 65% | 76.17 | 0.0 | |||||||
| Date | Time (mdt) | Wind (kph) | Vis. (km) | Weather | Sky Cond. | Air | Dwpt | Max. | Min. | Relative Humidity | Wind Chill (°C) | Heat Index (°C) | altimeter (cm) | sea level (mb) | 1 hr | 3 hr | 6 hr |
| 6 hour | |||||||||||||||||
| Temperature (ºC) | Pressure | Precipitation (cm) | |||||||||||||||